sensor_id;sensor_type;location;lat;lon;timestamp;pressure;altitude;pressure_sealevel;temperature;humidity
36932;BME280;22847;42.654;23.370;2024-01-07T00:01:26;93194.94;;;10.01;81.38
36932;BME280;22847;42.654;23.370;2024-01-07T00:03:52;93180.84;;;9.96;81.04
36932;BME280;22847;42.654;23.370;2024-01-07T00:06:17;93173.56;;;9.76;81.41
36932;BME280;22847;42.654;23.370;2024-01-07T00:08:43;93185.44;;;9.94;80.94
36932;BME280;22847;42.654;23.370;2024-01-07T00:11:09;93148.19;;;10.08;80.28
36932;BME280;22847;42.654;23.370;2024-01-07T00:13:34;93150.19;;;10.20;79.46
36932;BME280;22847;42.654;23.370;2024-01-07T00:15:59;93014.41;;;9.50;78.84
36932;BME280;22847;42.654;23.370;2024-01-07T00:18:25;93061.38;;;9.86;78.32
36932;BME280;22847;42.654;23.370;2024-01-07T00:20:52;93151.34;;;10.33;78.25
36932;BME280;22847;42.654;23.370;2024-01-07T00:23:18;93165.81;;;10.50;78.19
36932;BME280;22847;42.654;23.370;2024-01-07T00:25:43;93142.28;;;10.43;77.89
36932;BME280;22847;42.654;23.370;2024-01-07T00:28:09;93135.47;;;10.42;77.67
36932;BME280;22847;42.654;23.370;2024-01-07T00:30:35;93129.00;;;10.23;78.55
36932;BME280;22847;42.654;23.370;2024-01-07T00:33:00;93136.09;;;10.44;78.58
36932;BME280;22847;42.654;23.370;2024-01-07T00:35:26;93143.09;;;10.44;78.19
36932;BME280;22847;42.654;23.370;2024-01-07T00:37:51;93155.22;;;10.37;79.07
36932;BME280;22847;42.654;23.370;2024-01-07T00:40:17;93065.91;;;10.13;78.62
36932;BME280;22847;42.654;23.370;2024-01-07T00:42:43;93113.56;;;10.22;79.80
36932;BME280;22847;42.654;23.370;2024-01-07T00:45:09;93128.66;;;10.26;80.19
36932;BME280;22847;42.654;23.370;2024-01-07T00:47:35;93059.56;;;10.01;80.18
36932;BME280;22847;42.654;23.370;2024-01-07T00:50:00;93105.72;;;10.37;80.62
36932;BME280;22847;42.654;23.370;2024-01-07T00:52:26;93100.59;;;10.43;79.66
36932;BME280;22847;42.654;23.370;2024-01-07T00:54:51;93066.28;;;10.40;78.57
36932;BME280;22847;42.654;23.370;2024-01-07T00:57:17;92971.22;;;10.00;76.09
36932;BME280;22847;42.654;23.370;2024-01-07T00:59:42;93087.00;;;10.62;74.55
36932;BME280;22847;42.654;23.370;2024-01-07T01:02:07;93115.41;;;10.57;73.85
36932;BME280;22847;42.654;23.370;2024-01-07T01:04:33;93103.97;;;10.58;73.73
36932;BME280;22847;42.654;23.370;2024-01-07T01:06:58;93085.50;;;10.53;73.94
36932;BME280;22847;42.654;23.370;2024-01-07T01:09:24;93096.91;;;10.38;74.18
36932;BME280;22847;42.654;23.370;2024-01-07T01:11:49;93089.28;;;10.36;74.10
36932;BME280;22847;42.654;23.370;2024-01-07T01:14:15;93055.50;;;10.13;74.56
36932;BME280;22847;42.654;23.370;2024-01-07T01:16:41;92940.50;;;9.45;73.88
36932;BME280;22847;42.654;23.370;2024-01-07T01:19:06;93061.19;;;10.02;74.17
36932;BME280;22847;42.654;23.370;2024-01-07T01:21:32;93003.03;;;9.66;73.88
36932;BME280;22847;42.654;23.370;2024-01-07T01:23:57;93047.19;;;10.03;73.75
36932;BME280;22847;42.654;23.370;2024-01-07T01:26:24;93015.94;;;10.03;73.62
36932;BME280;22847;42.654;23.370;2024-01-07T01:28:49;93017.84;;;9.95;73.64
36932;BME280;22847;42.654;23.370;2024-01-07T01:31:14;93026.06;;;10.13;73.70
36932;BME280;22847;42.654;23.370;2024-01-07T01:33:40;93064.41;;;10.04;73.43
36932;BME280;22847;42.654;23.370;2024-01-07T01:36:06;92827.91;;;8.71;74.82
36932;BME280;22847;42.654;23.370;2024-01-07T01:38:32;92970.91;;;9.44;77.38
36932;BME280;22847;42.654;23.370;2024-01-07T01:40:57;92934.44;;;9.23;79.49
36932;BME280;22847;42.654;23.370;2024-01-07T01:43:24;92975.28;;;9.73;77.32
36932;BME280;22847;42.654;23.370;2024-01-07T01:45:51;93007.88;;;9.98;78.90
36932;BME280;22847;42.654;23.370;2024-01-07T01:48:17;92967.56;;;9.94;80.83
36932;BME280;22847;42.654;23.370;2024-01-07T01:50:42;92989.00;;;10.25;80.95
36932;BME280;22847;42.654;23.370;2024-01-07T01:53:08;92961.06;;;10.19;80.28
36932;BME280;22847;42.654;23.370;2024-01-07T01:55:33;92848.81;;;9.57;79.58
36932;BME280;22847;42.654;23.370;2024-01-07T01:58:00;92808.44;;;9.11;81.57
36932;BME280;22847;42.654;23.370;2024-01-07T02:00:31;92957.19;;;10.30;81.15
36932;BME280;22847;42.654;23.370;2024-01-07T02:02:57;92898.56;;;9.83;82.10
36932;BME280;22847;42.654;23.370;2024-01-07T02:05:23;92975.53;;;10.22;82.20
36932;BME280;22847;42.654;23.370;2024-01-07T02:07:49;92949.91;;;10.11;82.64
36932;BME280;22847;42.654;23.370;2024-01-07T02:10:15;92974.78;;;10.28;82.64
36932;BME280;22847;42.654;23.370;2024-01-07T02:12:40;92951.16;;;9.79;85.44
36932;BME280;22847;42.654;23.370;2024-01-07T02:15:06;92963.56;;;10.13;84.53
36932;BME280;22847;42.654;23.370;2024-01-07T02:17:31;92956.13;;;10.24;83.93
36932;BME280;22847;42.654;23.370;2024-01-07T02:19:57;92830.63;;;9.43;84.96
36932;BME280;22847;42.654;23.370;2024-01-07T02:22:23;92901.28;;;9.97;85.28
36932;BME280;22847;42.654;23.370;2024-01-07T02:24:48;92952.66;;;10.39;84.17
36932;BME280;22847;42.654;23.370;2024-01-07T02:27:13;92894.78;;;10.43;83.69
36932;BME280;22847;42.654;23.370;2024-01-07T02:29:39;92820.34;;;10.13;83.28
36932;BME280;22847;42.654;23.370;2024-01-07T02:32:05;92873.66;;;10.59;82.02
36932;BME280;22847;42.654;23.370;2024-01-07T02:34:31;92790.38;;;10.17;82.52
36932;BME280;22847;42.654;23.370;2024-01-07T02:36:56;92754.97;;;9.80;83.11
36932;BME280;22847;42.654;23.370;2024-01-07T02:39:21;92924.34;;;10.78;82.15
36932;BME280;22847;42.654;23.370;2024-01-07T02:41:48;92882.28;;;10.60;83.18
36932;BME280;22847;42.654;23.370;2024-01-07T02:44:13;92901.06;;;10.77;82.71
36932;BME280;22847;42.654;23.370;2024-01-07T02:46:39;92854.16;;;10.49;83.09
36932;BME280;22847;42.654;23.370;2024-01-07T02:49:04;92882.44;;;10.52;83.54
36932;BME280;22847;42.654;23.370;2024-01-07T02:51:30;92802.44;;;10.03;84.07
36932;BME280;22847;42.654;23.370;2024-01-07T02:53:55;92720.91;;;9.75;83.32
36932;BME280;22847;42.654;23.370;2024-01-07T02:56:20;92890.97;;;10.67;83.44
36932;BME280;22847;42.654;23.370;2024-01-07T02:58:46;92889.53;;;10.64;83.68
36932;BME280;22847;42.654;23.370;2024-01-07T03:01:11;92906.84;;;10.72;83.67
36932;BME280;22847;42.654;23.370;2024-01-07T03:03:37;92901.44;;;10.73;83.99
36932;BME280;22847;42.654;23.370;2024-01-07T03:06:03;92778.69;;;9.92;84.26
36932;BME280;22847;42.654;23.370;2024-01-07T03:08:28;92902.88;;;10.76;83.49
36932;BME280;22847;42.654;23.370;2024-01-07T03:10:54;92901.53;;;10.59;83.79
36932;BME280;22847;42.654;23.370;2024-01-07T03:13:20;92865.34;;;10.70;82.45
36932;BME280;22847;42.654;23.370;2024-01-07T03:15:45;92931.53;;;10.97;82.27
36932;BME280;22847;42.654;23.370;2024-01-07T03:18:11;92915.47;;;11.00;82.01
36932;BME280;22847;42.654;23.370;2024-01-07T03:20:36;92806.72;;;10.32;82.42
36932;BME280;22847;42.654;23.370;2024-01-07T03:23:02;92944.47;;;11.12;82.35
36932;BME280;22847;42.654;23.370;2024-01-07T03:25:27;92914.41;;;11.16;82.39
36932;BME280;22847;42.654;23.370;2024-01-07T03:27:53;92920.41;;;10.89;84.23
36932;BME280;22847;42.654;23.370;2024-01-07T03:30:18;92907.97;;;11.12;83.86
36932;BME280;22847;42.654;23.370;2024-01-07T03:32:44;92920.47;;;10.95;85.06
36932;BME280;22847;42.654;23.370;2024-01-07T03:35:09;92850.03;;;10.61;85.71
36932;BME280;22847;42.654;23.370;2024-01-07T03:37:35;92881.53;;;10.66;86.51
36932;BME280;22847;42.654;23.370;2024-01-07T03:40:01;92885.63;;;10.75;86.78
36932;BME280;22847;42.654;23.370;2024-01-07T03:42:27;92881.22;;;10.76;86.51
36932;BME280;22847;42.654;23.370;2024-01-07T03:44:52;92885.09;;;10.86;87.28
36932;BME280;22847;42.654;23.370;2024-01-07T03:47:18;92893.81;;;10.72;88.74
36932;BME280;22847;42.654;23.370;2024-01-07T03:49:43;92901.06;;;10.77;88.73
36932;BME280;22847;42.654;23.370;2024-01-07T03:52:09;92890.06;;;10.81;88.29
36932;BME280;22847;42.654;23.370;2024-01-07T03:54:35;92895.75;;;10.91;87.55
36932;BME280;22847;42.654;23.370;2024-01-07T03:57:00;92890.72;;;10.90;85.47
36932;BME280;22847;42.654;23.370;2024-01-07T03:59:26;92733.88;;;9.96;85.96
36932;BME280;22847;42.654;23.370;2024-01-07T04:01:56;92737.41;;;10.10;85.75
36932;BME280;22847;42.654;23.370;2024-01-07T04:04:22;92729.00;;;10.14;84.14
36932;BME280;22847;42.654;23.370;2024-01-07T04:06:48;92848.84;;;10.91;82.55
36932;BME280;22847;42.654;23.370;2024-01-07T04:09:13;92861.47;;;10.94;81.44
36932;BME280;22847;42.654;23.370;2024-01-07T04:11:42;92863.25;;;10.87;81.51
36932;BME280;22847;42.654;23.370;2024-01-07T04:14:08;92845.03;;;10.38;83.09
36932;BME280;22847;42.654;23.370;2024-01-07T04:16:34;92852.03;;;10.38;84.27
36932;BME280;22847;42.654;23.370;2024-01-07T04:19:00;92879.72;;;10.39;84.71
36932;BME280;22847;42.654;23.370;2024-01-07T04:21:26;92858.81;;;10.53;84.59
36932;BME280;22847;42.654;23.370;2024-01-07T04:23:51;92715.19;;;9.65;83.63
36932;BME280;22847;42.654;23.370;2024-01-07T04:26:17;92866.69;;;10.39;84.88
36932;BME280;22847;42.654;23.370;2024-01-07T04:28:43;92870.03;;;10.33;85.04
36932;BME280;22847;42.654;23.370;2024-01-07T04:31:09;92652.03;;;9.07;85.17
36932;BME280;22847;42.654;23.370;2024-01-07T04:33:34;92796.56;;;10.16;84.33
36932;BME280;22847;42.654;23.370;2024-01-07T04:35:59;92851.16;;;10.52;83.97
36932;BME280;22847;42.654;23.370;2024-01-07T04:38:26;92827.03;;;10.43;83.67
36932;BME280;22847;42.654;23.370;2024-01-07T04:40:52;92575.69;;;8.87;83.42
36932;BME280;22847;42.654;23.370;2024-01-07T04:43:20;92805.53;;;10.35;84.15
36932;BME280;22847;42.654;23.370;2024-01-07T04:45:46;92842.72;;;10.50;84.17
36932;BME280;22847;42.654;23.370;2024-01-07T04:48:12;92843.84;;;10.62;84.29
36932;BME280;22847;42.654;23.370;2024-01-07T04:50:40;92856.38;;;10.52;84.62
36932;BME280;22847;42.654;23.370;2024-01-07T04:53:07;92844.56;;;10.56;84.70
36932;BME280;22847;42.654;23.370;2024-01-07T04:55:33;92859.22;;;10.57;84.72
36932;BME280;22847;42.654;23.370;2024-01-07T04:57:58;92713.22;;;9.67;84.13
36932;BME280;22847;42.654;23.370;2024-01-07T05:00:24;92858.84;;;10.60;84.56
36932;BME280;22847;42.654;23.370;2024-01-07T05:02:49;92876.16;;;10.46;84.90
36932;BME280;22847;42.654;23.370;2024-01-07T05:05:15;92694.28;;;9.52;84.91
36932;BME280;22847;42.654;23.370;2024-01-07T05:07:40;92853.66;;;10.39;85.00
36932;BME280;22847;42.654;23.370;2024-01-07T05:10:06;92849.41;;;10.59;84.81
36932;BME280;22847;42.654;23.370;2024-01-07T05:12:32;92833.31;;;10.49;84.73
36932;BME280;22847;42.654;23.370;2024-01-07T05:14:57;92821.94;;;10.56;84.58
36932;BME280;22847;42.654;23.370;2024-01-07T05:17:23;92814.69;;;10.52;84.13
36932;BME280;22847;42.654;23.370;2024-01-07T05:19:48;92828.03;;;10.42;84.79
36932;BME280;22847;42.654;23.370;2024-01-07T05:22:13;92859.72;;;10.46;85.04
36932;BME280;22847;42.654;23.370;2024-01-07T05:24:39;92819.44;;;10.20;84.98
36932;BME280;22847;42.654;23.370;2024-01-07T05:27:05;92832.91;;;10.09;85.60
36932;BME280;22847;42.654;23.370;2024-01-07T05:29:31;92860.97;;;10.07;86.49
36932;BME280;22847;42.654;23.370;2024-01-07T05:31:59;92691.69;;;8.94;87.87
36932;BME280;22847;42.654;23.370;2024-01-07T05:34:26;92856.31;;;10.03;87.63
36932;BME280;22847;42.654;23.370;2024-01-07T05:36:51;92859.88;;;10.16;87.04
36932;BME280;22847;42.654;23.370;2024-01-07T05:39:17;92830.63;;;10.00;87.32
36932;BME280;22847;42.654;23.370;2024-01-07T05:41:42;92815.25;;;9.83;88.09
36932;BME280;22847;42.654;23.370;2024-01-07T05:44:09;92847.84;;;10.15;87.25
36932;BME280;22847;42.654;23.370;2024-01-07T05:46:38;92830.66;;;10.21;86.52
36932;BME280;22847;42.654;23.370;2024-01-07T05:49:05;92846.47;;;10.19;86.47
36932;BME280;22847;42.654;23.370;2024-01-07T05:51:30;92855.00;;;10.13;86.77
36932;BME280;22847;42.654;23.370;2024-01-07T05:53:56;92856.28;;;10.17;87.20
36932;BME280;22847;42.654;23.370;2024-01-07T05:56:22;92715.56;;;9.19;87.61
36932;BME280;22847;42.654;23.370;2024-01-07T05:58:47;92729.63;;;9.25;87.66
36932;BME280;22847;42.654;23.370;2024-01-07T06:01:19;92719.94;;;9.19;86.87
36932;BME280;22847;42.654;23.370;2024-01-07T06:03:44;92855.75;;;10.07;87.45
36932;BME280;22847;42.654;23.370;2024-01-07T06:06:12;92846.94;;;9.51;90.32
36932;BME280;22847;42.654;23.370;2024-01-07T06:08:38;92693.88;;;8.76;90.10
36932;BME280;22847;42.654;23.370;2024-01-07T06:11:03;92851.75;;;9.69;90.26
36932;BME280;22847;42.654;23.370;2024-01-07T06:13:29;92822.47;;;8.95;92.68
36932;BME280;22847;42.654;23.370;2024-01-07T06:15:55;92676.81;;;8.23;93.34
36932;BME280;22847;42.654;23.370;2024-01-07T06:18:20;92813.47;;;9.27;92.34
36932;BME280;22847;42.654;23.370;2024-01-07T06:20:46;92841.19;;;9.56;90.77
36932;BME280;22847;42.654;23.370;2024-01-07T06:23:11;92710.09;;;8.78;90.29
36932;BME280;22847;42.654;23.370;2024-01-07T06:25:37;92805.41;;;9.22;92.11
36932;BME280;22847;42.654;23.370;2024-01-07T06:28:04;92843.53;;;9.51;91.83
36932;BME280;22847;42.654;23.370;2024-01-07T06:30:30;92796.50;;;9.31;91.09
36932;BME280;22847;42.654;23.370;2024-01-07T06:32:55;92839.63;;;9.76;90.43
36932;BME280;22847;42.654;23.370;2024-01-07T06:35:21;92841.81;;;9.58;91.13
36932;BME280;22847;42.654;23.370;2024-01-07T06:37:46;92844.56;;;9.35;91.10
36932;BME280;22847;42.654;23.370;2024-01-07T06:40:12;92855.16;;;9.69;90.87
36932;BME280;22847;42.654;23.370;2024-01-07T06:42:38;92899.91;;;9.79;90.22
36932;BME280;22847;42.654;23.370;2024-01-07T06:45:04;92857.59;;;9.71;89.72
36932;BME280;22847;42.654;23.370;2024-01-07T06:47:29;92844.28;;;9.80;89.07
36932;BME280;22847;42.654;23.370;2024-01-07T06:49:55;92748.38;;;9.20;88.75
36932;BME280;22847;42.654;23.370;2024-01-07T06:52:20;92926.59;;;10.03;88.81
36932;BME280;22847;42.654;23.370;2024-01-07T06:54:46;92841.13;;;9.85;88.61
36932;BME280;22847;42.654;23.370;2024-01-07T06:57:12;92856.00;;;10.12;88.38
36932;BME280;22847;42.654;23.370;2024-01-07T06:59:37;92739.50;;;9.15;89.18
36932;BME280;22847;42.654;23.370;2024-01-07T07:02:03;92860.63;;;9.60;89.42
36932;BME280;22847;42.654;23.370;2024-01-07T07:04:28;92860.22;;;9.56;89.75
36932;BME280;22847;42.654;23.370;2024-01-07T07:06:54;92880.75;;;9.87;88.87
36932;BME280;22847;42.654;23.370;2024-01-07T07:09:19;92735.47;;;9.12;87.61
36932;BME280;22847;42.654;23.370;2024-01-07T07:11:45;92873.16;;;10.21;87.35
36932;BME280;22847;42.654;23.370;2024-01-07T07:14:10;92876.72;;;10.42;86.94
36932;BME280;22847;42.654;23.370;2024-01-07T07:16:36;92858.56;;;10.48;86.62
36932;BME280;22847;42.654;23.370;2024-01-07T07:19:01;92850.97;;;10.53;86.11
36932;BME280;22847;42.654;23.370;2024-01-07T07:21:27;92821.41;;;10.40;85.05
36932;BME280;22847;42.654;23.370;2024-01-07T07:23:53;92854.09;;;10.70;84.32
36932;BME280;22847;42.654;23.370;2024-01-07T07:26:18;92852.00;;;10.59;85.42
36932;BME280;22847;42.654;23.370;2024-01-07T07:28:44;92728.06;;;9.94;85.16
36932;BME280;22847;42.654;23.370;2024-01-07T07:31:11;92701.50;;;9.77;84.66
36932;BME280;22847;42.654;23.370;2024-01-07T07:33:39;92842.94;;;10.48;85.38
36932;BME280;22847;42.654;23.370;2024-01-07T07:36:05;92844.25;;;10.65;83.76
36932;BME280;22847;42.654;23.370;2024-01-07T07:38:30;92710.06;;;9.71;83.65
36932;BME280;22847;42.654;23.370;2024-01-07T07:40:56;92726.31;;;10.01;83.62
36932;BME280;22847;42.654;23.370;2024-01-07T07:43:21;92865.94;;;11.00;83.99
36932;BME280;22847;42.654;23.370;2024-01-07T07:45:47;92867.44;;;11.16;84.63
36932;BME280;22847;42.654;23.370;2024-01-07T07:48:13;92835.28;;;11.09;84.25
36932;BME280;22847;42.654;23.370;2024-01-07T07:50:38;92715.50;;;10.60;83.82
36932;BME280;22847;42.654;23.370;2024-01-07T07:53:05;92844.34;;;11.54;83.06
36932;BME280;22847;42.654;23.370;2024-01-07T07:55:31;92812.19;;;11.47;82.32
36932;BME280;22847;42.654;23.370;2024-01-07T07:57:56;92848.09;;;11.79;80.84
36932;BME280;22847;42.654;23.370;2024-01-07T08:00:23;92846.88;;;11.75;80.55
36932;BME280;22847;42.654;23.370;2024-01-07T08:02:49;92859.38;;;11.99;79.75
36932;BME280;22847;42.654;23.370;2024-01-07T08:05:15;92835.69;;;12.01;77.94
36932;BME280;22847;42.654;23.370;2024-01-07T08:07:40;92704.03;;;10.95;78.69
36932;BME280;22847;42.654;23.370;2024-01-07T08:10:07;92798.56;;;11.58;79.07
36932;BME280;22847;42.654;23.370;2024-01-07T08:12:33;92722.59;;;11.20;79.18
36932;BME280;22847;42.654;23.370;2024-01-07T08:14:59;92819.19;;;11.87;78.69
36932;BME280;22847;42.654;23.370;2024-01-07T08:17:24;92861.00;;;12.07;78.35
36932;BME280;22847;42.654;23.370;2024-01-07T08:19:50;92835.91;;;12.13;77.54
36932;BME280;22847;42.654;23.370;2024-01-07T08:22:15;92846.78;;;12.23;76.76
36932;BME280;22847;42.654;23.370;2024-01-07T08:24:41;92842.34;;;12.17;76.64
36932;BME280;22847;42.654;23.370;2024-01-07T08:27:08;92798.09;;;11.95;77.05
36932;BME280;22847;42.654;23.370;2024-01-07T08:29:33;92799.31;;;11.93;77.48
36932;BME280;22847;42.654;23.370;2024-01-07T08:31:59;92812.38;;;11.99;76.96
36932;BME280;22847;42.654;23.370;2024-01-07T08:34:24;92858.59;;;12.05;77.68
36932;BME280;22847;42.654;23.370;2024-01-07T08:36:50;92700.53;;;11.23;78.08
36932;BME280;22847;42.654;23.370;2024-01-07T08:39:16;92840.53;;;12.17;77.28
36932;BME280;22847;42.654;23.370;2024-01-07T08:41:41;92837.91;;;12.11;77.80
36932;BME280;22847;42.654;23.370;2024-01-07T08:44:07;92845.28;;;11.94;78.56
36932;BME280;22847;42.654;23.370;2024-01-07T08:46:35;92796.81;;;11.65;78.97
36932;BME280;22847;42.654;23.370;2024-01-07T08:49:02;92824.44;;;12.00;78.96
36932;BME280;22847;42.654;23.370;2024-01-07T08:51:27;92832.91;;;12.22;79.29
36932;BME280;22847;42.654;23.370;2024-01-07T08:53:54;92721.69;;;11.67;78.67
36932;BME280;22847;42.654;23.370;2024-01-07T08:56:20;92675.28;;;11.49;77.90
36932;BME280;22847;42.654;23.370;2024-01-07T08:58:45;92677.31;;;11.54;77.74
36932;BME280;22847;42.654;23.370;2024-01-07T09:01:11;92824.09;;;12.69;77.26
36932;BME280;22847;42.654;23.370;2024-01-07T09:03:36;92748.69;;;12.14;77.05
36932;BME280;22847;42.654;23.370;2024-01-07T09:06:02;92671.13;;;11.61;77.30
36932;BME280;22847;42.654;23.370;2024-01-07T09:08:27;92827.09;;;12.66;78.10
36932;BME280;22847;42.654;23.370;2024-01-07T09:10:53;92826.69;;;12.69;77.88
36932;BME280;22847;42.654;23.370;2024-01-07T09:13:18;92805.56;;;12.77;77.45
36932;BME280;22847;42.654;23.370;2024-01-07T09:15:44;92830.69;;;12.85;77.29
36932;BME280;22847;42.654;23.370;2024-01-07T09:18:09;92826.50;;;12.64;78.66
36932;BME280;22847;42.654;23.370;2024-01-07T09:20:35;92789.69;;;12.13;79.12
36932;BME280;22847;42.654;23.370;2024-01-07T09:23:00;92828.47;;;13.15;78.57
36932;BME280;22847;42.654;23.370;2024-01-07T09:25:26;92805.13;;;13.00;77.47
36932;BME280;22847;42.654;23.370;2024-01-07T09:27:52;92842.13;;;13.04;76.90
36932;BME280;22847;42.654;23.370;2024-01-07T09:30:17;92845.59;;;12.91;76.00
36932;BME280;22847;42.654;23.370;2024-01-07T09:32:43;92829.31;;;12.56;78.18
36932;BME280;22847;42.654;23.370;2024-01-07T09:35:09;92778.63;;;12.57;77.90
36932;BME280;22847;42.654;23.370;2024-01-07T09:37:35;92728.59;;;12.40;78.22
36932;BME280;22847;42.654;23.370;2024-01-07T09:40:01;92802.31;;;12.88;77.00
36932;BME280;22847;42.654;23.370;2024-01-07T09:42:26;92772.53;;;12.96;76.81
36932;BME280;22847;42.654;23.370;2024-01-07T09:44:52;92799.81;;;13.33;75.38
36932;BME280;22847;42.654;23.370;2024-01-07T09:47:18;92792.38;;;13.36;74.01
36932;BME280;22847;42.654;23.370;2024-01-07T09:49:44;92811.22;;;13.58;72.37
36932;BME280;22847;42.654;23.370;2024-01-07T09:52:11;92754.03;;;12.84;72.64
36932;BME280;22847;42.654;23.370;2024-01-07T09:54:37;92833.66;;;13.28;74.69
36932;BME280;22847;42.654;23.370;2024-01-07T09:57:04;92799.84;;;13.26;73.16
36932;BME280;22847;42.654;23.370;2024-01-07T09:59:34;92818.44;;;13.56;71.74
36932;BME280;22847;42.654;23.370;2024-01-07T10:02:00;92814.00;;;13.63;71.93
36932;BME280;22847;42.654;23.370;2024-01-07T10:04:26;92762.72;;;13.43;72.30
36932;BME280;22847;42.654;23.370;2024-01-07T10:06:58;92790.50;;;13.50;72.10
36932;BME280;22847;42.654;23.370;2024-01-07T10:09:25;92825.59;;;13.80;70.38
36932;BME280;22847;42.654;23.370;2024-01-07T10:11:53;92779.97;;;13.63;68.15
36932;BME280;22847;42.654;23.370;2024-01-07T10:14:19;92810.97;;;13.66;67.84
36932;BME280;22847;42.654;23.370;2024-01-07T10:16:48;92791.88;;;13.59;68.70
36932;BME280;22847;42.654;23.370;2024-01-07T10:19:20;92742.78;;;13.79;68.43
36932;BME280;22847;42.654;23.370;2024-01-07T10:21:46;92750.22;;;14.14;67.60
36932;BME280;22847;42.654;23.370;2024-01-07T10:24:12;92786.59;;;14.60;66.62
36932;BME280;22847;42.654;23.370;2024-01-07T10:26:41;92651.28;;;13.84;65.22
36932;BME280;22847;42.654;23.370;2024-01-07T10:29:07;92774.41;;;14.72;65.64
36932;BME280;22847;42.654;23.370;2024-01-07T10:31:38;92756.59;;;14.99;64.74
36932;BME280;22847;42.654;23.370;2024-01-07T10:34:07;92643.09;;;14.49;63.57
36932;BME280;22847;42.654;23.370;2024-01-07T10:36:34;92730.91;;;14.33;64.33
36932;BME280;22847;42.654;23.370;2024-01-07T10:39:00;92780.91;;;13.75;66.58
36932;BME280;22847;42.654;23.370;2024-01-07T10:41:26;92744.41;;;13.80;67.39
36932;BME280;22847;42.654;23.370;2024-01-07T10:43:52;92755.31;;;13.77;67.35
36932;BME280;22847;42.654;23.370;2024-01-07T10:46:18;92750.72;;;14.04;67.68
36932;BME280;22847;42.654;23.370;2024-01-07T10:48:59;92746.56;;;13.90;68.46
36932;BME280;22847;42.654;23.370;2024-01-07T10:51:27;92599.31;;;13.32;67.96
36932;BME280;22847;42.654;23.370;2024-01-07T10:53:53;92627.25;;;13.38;66.63
36932;BME280;22847;42.654;23.370;2024-01-07T10:56:27;92672.09;;;13.48;65.84
36932;BME280;22847;42.654;23.370;2024-01-07T10:58:55;92737.38;;;14.06;66.13
36932;BME280;22847;42.654;23.370;2024-01-07T11:01:22;92771.50;;;13.17;66.66
36932;BME280;22847;42.654;23.370;2024-01-07T11:07:19;92766.97;;;12.53;69.36
36932;BME280;22847;42.654;23.370;2024-01-07T11:09:39;92641.59;;;11.54;70.39
36932;BME280;22847;42.654;23.370;2024-01-07T11:12:10;92743.66;;;11.86;72.01
36932;BME280;22847;42.654;23.370;2024-01-07T11:14:41;92639.19;;;11.59;71.18
36932;BME280;22847;42.654;23.370;2024-01-07T11:17:12;92755.13;;;12.24;71.52
36932;BME280;22847;42.654;23.370;2024-01-07T11:19:50;92657.66;;;11.84;70.80
36932;BME280;22847;42.654;23.370;2024-01-07T11:22:27;92739.22;;;12.52;69.99
36932;BME280;22847;42.654;23.370;2024-01-07T11:24:56;92763.50;;;12.79;68.55
36932;BME280;22847;42.654;23.370;2024-01-07T11:27:23;92745.81;;;12.81;68.42
36932;BME280;22847;42.654;23.370;2024-01-07T11:29:56;92742.13;;;13.02;68.16
36932;BME280;22847;42.654;23.370;2024-01-07T11:32:23;92752.78;;;13.13;67.21
36932;BME280;22847;42.654;23.370;2024-01-07T11:34:50;92762.66;;;13.05;67.33
36932;BME280;22847;42.654;23.370;2024-01-07T11:37:19;92625.50;;;12.23;67.38
36932;BME280;22847;42.654;23.370;2024-01-07T11:39:45;92750.38;;;13.12;68.13
36932;BME280;22847;42.654;23.370;2024-01-07T11:42:11;92703.91;;;12.94;67.20
36932;BME280;22847;42.654;23.370;2024-01-07T11:44:38;92758.03;;;13.00;67.74
36932;BME280;22847;42.654;23.370;2024-01-07T11:47:10;92750.34;;;13.18;66.94
36932;BME280;22847;42.654;23.370;2024-01-07T11:49:35;92766.03;;;13.25;66.37
36932;BME280;22847;42.654;23.370;2024-01-07T11:52:01;92710.13;;;13.00;65.91
36932;BME280;22847;42.654;23.370;2024-01-07T11:54:28;92645.69;;;12.67;65.31
36932;BME280;22847;42.654;23.370;2024-01-07T11:56:54;92780.47;;;13.34;65.50
36932;BME280;22847;42.654;23.370;2024-01-07T11:59:20;92663.13;;;12.86;64.14
36932;BME280;22847;42.654;23.370;2024-01-07T12:01:46;92733.59;;;13.32;64.74
36932;BME280;22847;42.654;23.370;2024-01-07T12:04:11;92752.81;;;13.51;64.91
36932;BME280;22847;42.654;23.370;2024-01-07T12:06:38;92626.25;;;12.94;65.59
36932;BME280;22847;42.654;23.370;2024-01-07T12:09:04;92752.44;;;13.85;65.17
36932;BME280;22847;42.654;23.370;2024-01-07T12:11:30;92755.97;;;13.98;65.09
36932;BME280;22847;42.654;23.370;2024-01-07T12:13:56;92757.50;;;13.80;65.05
36932;BME280;22847;42.654;23.370;2024-01-07T12:16:22;92741.44;;;13.70;65.03
36932;BME280;22847;42.654;23.370;2024-01-07T12:18:47;92747.53;;;13.96;64.29
36932;BME280;22847;42.654;23.370;2024-01-07T12:21:18;92619.94;;;13.09;63.94
36932;BME280;22847;42.654;23.370;2024-01-07T12:23:50;92753.63;;;13.90;64.10
36932;BME280;22847;42.654;23.370;2024-01-07T12:26:16;92666.13;;;13.34;64.40
36932;BME280;22847;42.654;23.370;2024-01-07T12:28:44;92661.34;;;13.25;65.75
36932;BME280;22847;42.654;23.370;2024-01-07T12:31:10;92615.66;;;12.83;66.20
36932;BME280;22847;42.654;23.370;2024-01-07T12:33:39;92791.06;;;13.59;66.57
36932;BME280;22847;42.654;23.370;2024-01-07T12:36:06;92661.88;;;12.95;66.40
36932;BME280;22847;42.654;23.370;2024-01-07T12:38:32;92769.97;;;13.47;67.23
36932;BME280;22847;42.654;23.370;2024-01-07T12:40:58;92773.41;;;13.41;67.00
36932;BME280;22847;42.654;23.370;2024-01-07T12:43:24;92730.19;;;13.25;67.44
36932;BME280;22847;42.654;23.370;2024-01-07T12:45:49;92618.19;;;12.51;67.81
36932;BME280;22847;42.654;23.370;2024-01-07T12:48:15;92755.09;;;13.41;68.01
36932;BME280;22847;42.654;23.370;2024-01-07T12:50:41;92766.97;;;13.44;67.90